Time;durP1;ratioP1;P1;durP2;ratioP2;P2;SDS_P1;SDS_P2;PMS_P1;PMS_P2;Temp;Humidity;BMP_temperature;BMP_pressure;BME280_temperature;BME280_humidity;BME280_pressure;Samples;Min_cycle;Max_cycle;Signal;HPM_P1;HPM_P2
2021/11/18 00:01:05;;;;;;;12.90;9.87;;;7.00;99.90;;;;;;5052036;28;20441;-64
2021/11/18 00:03:32;;;;;;;12.00;10.70;;;7.10;99.90;;;;;;5052252;28;20895;-64
2021/11/18 00:05:59;;;;;;;10.40;9.30;;;7.10;99.90;;;;;;5051950;28;20444;-65
2021/11/18 00:08:26;;;;;;;13.00;10.40;;;7.00;99.90;;;;;;5050633;28;20455;-65
2021/11/18 00:10:56;;;;;;;12.77;10.53;;;7.00;99.90;;;;;;5051850;28;20515;-64
2021/11/18 00:13:26;;;;;;;11.30;8.77;;;7.00;99.90;;;;;;5052280;28;20455;-64
2021/11/18 00:15:54;;;;;;;12.27;10.10;;;7.10;99.90;;;;;;5052085;28;20480;-65
2021/11/18 00:18:23;;;;;;;13.20;10.67;;;7.10;99.90;;;;;;5050637;28;20467;-65
2021/11/18 00:20:52;;;;;;;13.87;10.70;;;7.20;99.90;;;;;;5051609;28;20934;-64
2021/11/18 00:23:20;;;;;;;18.40;12.40;;;7.20;99.90;;;;;;5051758;28;20467;-65
2021/11/18 00:25:48;;;;;;;12.53;10.70;;;7.20;99.90;;;;;;5051830;28;20846;-65
2021/11/18 00:28:16;;;;;;;13.60;10.77;;;7.20;99.90;;;;;;5050320;28;20468;-64
2021/11/18 00:30:44;;;;;;;17.13;11.40;;;7.20;99.90;;;;;;5051475;28;20934;-65
2021/11/18 00:33:11;;;;;;;12.80;11.23;;;7.20;99.90;;;;;;5051501;28;20552;-64
2021/11/18 00:35:39;;;;;;;15.90;12.10;;;7.20;99.90;;;;;;5051660;28;20477;-65
2021/11/18 00:38:06;;;;;;;17.43;13.10;;;7.10;99.90;;;;;;5050029;28;20525;-64
2021/11/18 00:40:35;;;;;;;12.27;10.30;;;7.10;99.90;;;;;;5051572;28;20460;-65
2021/11/18 00:43:03;;;;;;;14.70;12.40;;;7.10;99.90;;;;;;5051471;28;20542;-65
2021/11/18 00:45:31;;;;;;;14.27;12.67;;;7.10;99.90;;;;;;5051379;28;20448;-64
2021/11/18 00:47:58;;;;;;;14.73;12.87;;;7.10;99.90;;;;;;5050000;28;20994;-64
2021/11/18 00:50:27;;;;;;;14.10;12.60;;;7.10;99.90;;;;;;5051361;28;20525;-65
2021/11/18 00:52:55;;;;;;;13.67;12.20;;;7.20;99.90;;;;;;5051281;28;20441;-64
2021/11/18 00:55:24;;;;;;;15.87;12.10;;;7.10;99.90;;;;;;5051186;28;20490;-65
2021/11/18 00:57:51;;;;;;;12.97;11.57;;;7.10;99.90;;;;;;5049732;28;20986;-64
2021/11/18 01:00:20;;;;;;;16.40;12.53;;;7.10;99.90;;;;;;5050977;28;20444;-63
2021/11/18 01:02:49;;;;;;;14.10;12.37;;;7.10;99.90;;;;;;5051233;28;20448;-64
2021/11/18 01:05:16;;;;;;;15.27;12.50;;;7.00;99.90;;;;;;5050848;28;20905;-64
2021/11/18 01:07:43;;;;;;;14.77;13.10;;;7.00;99.90;;;;;;5049054;28;20635;-65
2021/11/18 01:10:12;;;;;;;16.30;13.87;;;7.00;99.90;;;;;;5050615;28;20972;-64
2021/11/18 01:12:40;;;;;;;15.60;13.17;;;7.00;99.90;;;;;;5050767;28;20441;-65
2021/11/18 01:15:09;;;;;;;15.57;13.30;;;7.00;99.90;;;;;;5050969;28;20480;-64
2021/11/18 01:17:37;;;;;;;15.00;13.37;;;7.00;99.90;;;;;;5049948;28;20475;-65
2021/11/18 01:20:07;;;;;;;15.60;13.70;;;7.00;99.90;;;;;;5050773;28;20837;-64
2021/11/18 01:22:35;;;;;;;15.97;14.07;;;7.00;99.90;;;;;;5050999;28;20472;-64
2021/11/18 01:25:01;;;;;;;18.23;16.30;;;7.00;99.90;;;;;;5051054;28;20440;-64
2021/11/18 01:27:28;;;;;;;17.50;14.97;;;7.00;99.90;;;;;;5049420;28;20478;-64
2021/11/18 01:29:55;;;;;;;16.30;14.67;;;7.00;99.90;;;;;;5050903;28;20459;-63
2021/11/18 01:32:22;;;;;;;17.47;14.20;;;7.00;99.90;;;;;;5050700;28;20440;-65
2021/11/18 01:34:49;;;;;;;17.97;15.80;;;7.00;99.90;;;;;;5050495;28;20575;-64
2021/11/18 01:37:17;;;;;;;17.00;14.70;;;7.00;99.90;;;;;;5049354;28;20473;-64
2021/11/18 01:39:44;;;;;;;17.67;15.30;;;7.00;99.90;;;;;;5050311;28;20463;-64
2021/11/18 01:42:11;;;;;;;18.53;15.20;;;7.00;99.90;;;;;;5050165;28;20444;-65
2021/11/18 01:44:41;;;;;;;16.90;14.83;;;6.90;99.90;;;;;;5050311;28;20535;-64
2021/11/18 01:47:11;;;;;;;17.20;15.40;;;6.90;99.90;;;;;;5048856;28;21222;-64
2021/11/18 01:49:39;;;;;;;16.40;14.60;;;6.90;99.90;;;;;;5050510;28;20447;-64
2021/11/18 01:52:07;;;;;;;17.20;15.40;;;6.90;99.90;;;;;;5050255;28;20452;-64
2021/11/18 01:54:37;;;;;;;15.40;13.80;;;6.90;99.90;;;;;;5050253;28;20487;-64
2021/11/18 01:57:06;;;;;;;18.63;14.73;;;6.80;99.90;;;;;;5048361;28;20468;-64
2021/11/18 01:59:36;;;;;;;17.90;15.27;;;6.80;99.90;;;;;;5048694;28;20934;-64
2021/11/18 02:02:04;;;;;;;18.33;15.03;;;6.80;99.90;;;;;;5049912;28;20441;-64
2021/11/18 02:04:32;;;;;;;19.20;16.63;;;6.90;99.90;;;;;;5049899;28;20440;-65
2021/11/18 02:07:02;;;;;;;17.97;14.27;;;6.90;99.90;;;;;;5048250;28;21009;-64
2021/11/18 02:09:35;;;;;;;18.60;16.20;;;6.90;99.90;;;;;;5049836;28;20966;-64
2021/11/18 02:12:07;;;;;;;19.37;15.07;;;6.90;99.90;;;;;;5047857;28;20476;-64
2021/11/18 02:14:36;;;;;;;17.20;15.40;;;6.90;99.90;;;;;;5033141;28;20446;-63
2021/11/18 02:17:04;;;;;;;15.70;14.07;;;6.90;99.90;;;;;;5048639;28;20461;-64
2021/11/18 02:19:37;;;;;;;17.13;14.90;;;6.90;99.90;;;;;;5054424;28;20448;-64
2021/11/18 02:22:06;;;;;;;18.93;15.40;;;6.90;99.90;;;;;;5056448;28;20441;-63
2021/11/18 02:24:38;;;;;;;16.73;14.43;;;7.00;99.90;;;;;;5056342;28;20452;-64
2021/11/18 02:27:05;;;;;;;19.53;15.40;;;7.00;99.90;;;;;;5055065;28;21013;-64
2021/11/18 02:29:32;;;;;;;18.70;14.60;;;6.90;99.90;;;;;;5056273;28;21153;-64
2021/11/18 02:32:02;;;;;;;18.50;15.70;;;6.90;99.90;;;;;;5056198;28;20444;-62
2021/11/18 02:34:35;;;;;;;20.73;16.53;;;6.90;99.90;;;;;;5056049;28;20486;-64
2021/11/18 02:37:02;;;;;;;22.27;16.33;;;6.90;99.90;;;;;;5055242;28;20471;-64
2021/11/18 02:39:30;;;;;;;17.40;15.13;;;6.90;99.90;;;;;;5056202;28;20865;-64
2021/11/18 02:41:57;;;;;;;22.43;16.23;;;6.90;99.90;;;;;;5056387;28;20444;-63
2021/11/18 02:44:24;;;;;;;18.70;15.77;;;7.00;99.90;;;;;;5056073;28;20480;-63
2021/11/18 02:46:51;;;;;;;17.30;14.57;;;6.90;99.90;;;;;;5055179;28;20459;-64
2021/11/18 02:49:18;;;;;;;18.20;15.97;;;6.90;99.90;;;;;;5055977;28;20444;-64
2021/11/18 02:51:45;;;;;;;18.40;15.37;;;6.90;99.90;;;;;;5056237;28;20451;-64
2021/11/18 02:54:12;;;;;;;18.53;15.57;;;6.90;99.90;;;;;;5056009;28;20444;-63
2021/11/18 02:56:40;;;;;;;18.07;14.70;;;6.90;99.90;;;;;;5054928;28;20492;-66
2021/11/18 02:59:07;;;;;;;16.65;14.43;;;7.00;99.90;;;;;;5056014;28;20451;-64
2021/11/18 03:01:37;;;;;;;21.97;16.43;;;7.00;99.90;;;;;;5056081;28;20204;-65
2021/11/18 03:04:05;;;;;;;18.13;15.60;;;7.00;99.90;;;;;;5056196;28;20535;-64
2021/11/18 03:06:32;;;;;;;19.17;15.20;;;7.00;99.90;;;;;;5055157;28;20462;-62
2021/11/18 03:08:59;;;;;;;18.37;16.00;;;6.90;99.90;;;;;;5056259;28;20448;-64
2021/11/18 03:11:28;;;;;;;18.73;16.43;;;7.00;99.90;;;;;;5055940;28;20456;-64
2021/11/18 03:13:57;;;;;;;18.17;15.23;;;7.00;99.90;;;;;;5056049;28;20452;-66
2021/11/18 03:16:24;;;;;;;16.90;15.13;;;7.00;99.90;;;;;;5055148;28;20492;-64
2021/11/18 03:18:51;;;;;;;19.33;15.73;;;6.90;99.90;;;;;;5055746;28;20966;-65
2021/11/18 03:21:20;;;;;;;18.30;14.90;;;6.90;99.90;;;;;;5056132;28;20457;-65
2021/11/18 03:23:48;;;;;;;18.73;15.93;;;6.90;99.90;;;;;;5056171;28;20449;-66
2021/11/18 03:26:17;;;;;;;21.70;15.53;;;7.00;99.90;;;;;;5055053;28;20471;-61
2021/11/18 03:28:44;;;;;;;19.63;15.70;;;7.00;99.90;;;;;;5055590;28;20459;-64
2021/11/18 03:31:14;;;;;;;17.43;15.10;;;7.00;99.90;;;;;;5052745;28;20440;-65
2021/11/18 03:33:44;;;;;;;20.70;16.70;;;7.10;99.90;;;;;;5052657;28;20531;-64
2021/11/18 03:36:11;;;;;;;18.10;16.00;;;7.10;99.90;;;;;;5052336;28;20568;-64
2021/11/18 03:38:39;;;;;;;18.93;15.37;;;7.10;99.90;;;;;;5051377;28;20449;-65
2021/11/18 03:41:07;;;;;;;20.10;16.17;;;7.10;99.90;;;;;;5052469;28;20448;-65
2021/11/18 03:43:36;;;;;;;21.00;17.90;;;7.10;99.90;;;;;;5052610;28;20452;-64
2021/11/18 03:46:04;;;;;;;19.43;15.73;;;7.10;99.90;;;;;;5052604;28;20444;-63
2021/11/18 03:48:33;;;;;;;19.50;15.47;;;7.10;99.90;;;;;;5051378;28;20818;-63
2021/11/18 03:51:01;;;;;;;22.57;18.93;;;7.00;99.90;;;;;;5052465;28;20547;-65
2021/11/18 03:53:28;;;;;;;21.77;15.60;;;7.10;99.90;;;;;;5052666;28;20444;-63
2021/11/18 03:55:55;;;;;;;18.50;16.03;;;7.10;99.90;;;;;;5052165;28;20559;-64
2021/11/18 03:58:22;;;;;;;23.40;16.80;;;7.10;99.90;;;;;;5051449;28;20440;-64
2021/11/18 04:00:49;;;;;;;21.33;15.93;;;7.20;99.90;;;;;;5052821;28;20829;-64
2021/11/18 04:03:16;;;;;;;19.03;15.47;;;7.10;99.90;;;;;;5052448;28;20437;-65
2021/11/18 04:05:44;;;;;;;17.80;15.90;;;7.00;99.90;;;;;;5052520;28;20451;-64
2021/11/18 04:08:11;;;;;;;22.37;16.87;;;7.00;99.90;;;;;;5051134;28;20507;-64
2021/11/18 04:10:40;;;;;;;17.53;15.50;;;7.00;99.90;;;;;;5052187;28;20463;-64
2021/11/18 04:13:08;;;;;;;19.50;16.03;;;7.00;99.90;;;;;;5052304;28;20459;-64
2021/11/18 04:15:36;;;;;;;17.33;14.90;;;7.00;99.90;;;;;;5052144;28;20480;-63
2021/11/18 04:18:04;;;;;;;18.60;16.00;;;7.00;99.90;;;;;;5050590;28;20471;-64
2021/11/18 04:20:32;;;;;;;20.70;15.87;;;7.00;99.90;;;;;;5051592;28;20443;-64
2021/11/18 04:23:02;;;;;;;21.23;16.03;;;7.00;99.90;;;;;;5051849;28;20449;-63
2021/11/18 04:25:33;;;;;;;19.33;15.03;;;7.10;99.90;;;;;;5051539;28;20441;-66
2021/11/18 04:28:00;;;;;;;16.97;14.70;;;7.10;99.90;;;;;;5050733;28;21010;-65
2021/11/18 04:30:35;;;;;;;20.63;16.33;;;7.10;99.90;;;;;;5051673;28;20452;-64
2021/11/18 04:33:02;;;;;;;18.43;15.23;;;7.10;99.90;;;;;;5052019;28;20824;-64
2021/11/18 04:35:29;;;;;;;18.70;14.90;;;7.10;99.90;;;;;;5051766;28;20484;-64
2021/11/18 04:37:55;;;;;;;17.00;14.03;;;7.10;99.90;;;;;;5050317;28;20468;-64
2021/11/18 04:40:24;;;;;;;19.70;14.90;;;7.10;99.90;;;;;;5051336;28;20455;-64
2021/11/18 04:42:51;;;;;;;18.00;14.90;;;7.10;99.90;;;;;;5050425;28;20448;-64
2021/11/18 04:45:21;;;;;;;20.40;15.27;;;7.10;99.90;;;;;;5051009;28;21085;-64
2021/11/18 04:47:48;;;;;;;17.70;15.40;;;7.10;99.90;;;;;;5050300;28;20468;-64
2021/11/18 04:50:16;;;;;;;18.70;14.60;;;7.10;99.90;;;;;;5051232;28;20525;-66
2021/11/18 04:52:43;;;;;;;19.30;16.00;;;7.00;99.90;;;;;;5051172;28;20445;-64
2021/11/18 04:55:12;;;;;;;20.00;15.10;;;7.00;99.90;;;;;;5051146;28;20474;-64
2021/11/18 04:57:40;;;;;;;18.60;15.03;;;7.00;99.90;;;;;;5049745;28;20460;-64
2021/11/18 05:00:11;;;;;;;16.37;14.40;;;7.00;99.90;;;;;;5051205;28;20452;-64
2021/11/18 05:02:38;;;;;;;18.53;14.20;;;7.00;99.90;;;;;;5050983;28;20455;-66
2021/11/18 05:05:07;;;;;;;19.03;16.57;;;7.00;99.90;;;;;;5050922;28;20447;-65
2021/11/18 05:07:33;;;;;;;19.70;15.90;;;7.10;99.90;;;;;;5049420;28;20460;-64
2021/11/18 05:10:00;;;;;;;19.17;16.00;;;7.10;99.90;;;;;;5051280;28;20970;-64
2021/11/18 05:12:27;;;;;;;17.70;15.80;;;7.10;99.90;;;;;;5050655;28;20931;-64
2021/11/18 05:14:55;;;;;;;18.63;14.70;;;7.10;99.90;;;;;;5049584;28;20453;-64
2021/11/18 05:17:22;;;;;;;17.80;14.83;;;7.10;99.90;;;;;;5045838;28;20488;-68
2021/11/18 05:19:49;;;;;;;17.97;15.47;;;7.20;99.90;;;;;;5050590;28;20449;-65
2021/11/18 05:22:16;;;;;;;19.90;15.17;;;7.20;99.90;;;;;;5050480;28;20448;-66
2021/11/18 05:24:43;;;;;;;18.50;15.23;;;7.10;99.90;;;;;;5050575;28;20444;-63
2021/11/18 05:27:10;;;;;;;18.40;14.23;;;7.10;99.90;;;;;;5049449;28;20460;-65
2021/11/18 05:29:37;;;;;;;15.73;13.70;;;7.10;99.90;;;;;;5050535;28;20209;-65
2021/11/18 05:32:06;;;;;;;22.10;16.10;;;7.10;99.90;;;;;;5050616;28;20448;-65
2021/11/18 05:34:33;;;;;;;20.17;14.73;;;7.10;99.90;;;;;;5050359;28;20436;-65
2021/11/18 05:36:59;;;;;;;18.40;15.27;;;7.10;99.90;;;;;;5048846;28;20491;-64
2021/11/18 05:39:26;;;;;;;19.77;16.13;;;7.20;99.90;;;;;;5049517;28;20440;-65
2021/11/18 05:41:53;;;;;;;19.50;16.43;;;7.10;99.90;;;;;;5050201;28;20448;-65
2021/11/18 05:44:20;;;;;;;19.37;15.60;;;7.10;99.90;;;;;;5044618;28;20884;-66
2021/11/18 05:46:47;;;;;;;15.60;14.07;;;7.10;99.90;;;;;;5038578;28;20456;-65
2021/11/18 05:49:15;;;;;;;16.30;13.80;;;7.10;99.90;;;;;;5040784;28;20537;-65
2021/11/18 05:51:42;;;;;;;17.33;13.83;;;7.10;99.90;;;;;;5044480;28;20546;-65
2021/11/18 05:54:09;;;;;;;19.43;15.60;;;7.10;99.90;;;;;;5049726;28;20973;-64
2021/11/18 05:56:38;;;;;;;19.03;14.77;;;7.10;99.90;;;;;;5049028;28;20494;-65
2021/11/18 05:59:05;;;;;;;16.83;14.17;;;7.10;99.90;;;;;;5050173;28;20506;-64
2021/11/18 06:01:33;;;;;;;17.00;15.20;;;7.10;99.90;;;;;;5049906;28;20444;-64
2021/11/18 06:04:01;;;;;;;18.60;14.40;;;7.10;99.90;;;;;;5046159;28;20449;-63
2021/11/18 06:06:29;;;;;;;20.77;15.83;;;7.10;99.90;;;;;;5048060;28;20539;-61
2021/11/18 06:09:02;;;;;;;17.50;14.77;;;7.20;99.90;;;;;;5048615;28;20448;-65
2021/11/18 06:11:29;;;;;;;17.77;14.10;;;7.30;99.90;;;;;;5047753;28;20457;-64
2021/11/18 06:13:56;;;;;;;17.17;15.37;;;7.30;99.90;;;;;;5049314;28;20973;-64
2021/11/18 06:16:26;;;;;;;16.93;15.00;;;7.30;99.90;;;;;;5046493;28;20510;-64
2021/11/18 06:18:53;;;;;;;18.43;15.53;;;7.30;99.90;;;;;;5040982;28;20442;-65
2021/11/18 06:21:20;;;;;;;19.07;15.17;;;7.40;99.90;;;;;;5027766;28;20461;-63
2021/11/18 06:23:49;;;;;;;20.60;16.00;;;7.30;99.90;;;;;;5027355;28;21149;-64
2021/11/18 06:26:17;;;;;;;25.07;17.87;;;7.40;99.90;;;;;;5027910;28;20469;-64
2021/11/18 06:28:44;;;;;;;19.47;15.70;;;7.40;99.90;;;;;;5029389;28;20449;-64
2021/11/18 06:31:15;;;;;;;19.60;15.80;;;7.40;99.90;;;;;;5029537;28;20451;-63
2021/11/18 06:33:42;;;;;;;19.80;16.27;;;7.40;99.90;;;;;;5029655;28;20447;-63
2021/11/18 06:36:10;;;;;;;17.63;14.67;;;7.40;99.90;;;;;;5029441;28;20511;-63
2021/11/18 06:38:38;;;;;;;18.30;14.40;;;7.40;99.90;;;;;;5028876;28;20446;-65
2021/11/18 06:41:07;;;;;;;19.00;15.23;;;7.30;99.90;;;;;;5027805;28;20477;-65
2021/11/18 06:43:35;;;;;;;18.27;15.73;;;7.30;99.90;;;;;;5045275;28;20445;-64
2021/11/18 06:46:02;;;;;;;18.10;14.53;;;7.30;99.90;;;;;;5048321;28;20436;-64
2021/11/18 06:48:31;;;;;;;17.93;16.00;;;7.20;99.90;;;;;;5047727;28;20475;-63
2021/11/18 06:50:59;;;;;;;23.80;16.70;;;7.20;99.90;;;;;;5048494;28;20502;-63
2021/11/18 06:53:26;;;;;;;21.17;16.80;;;7.20;99.90;;;;;;5048646;28;20822;-64
2021/11/18 06:55:54;;;;;;;21.10;15.07;;;7.20;99.90;;;;;;5048309;28;20524;-62
2021/11/18 06:58:22;;;;;;;19.50;15.67;;;7.20;99.90;;;;;;5047171;28;20531;-64
2021/11/18 07:00:49;;;;;;;20.57;14.47;;;7.30;99.90;;;;;;5048303;28;20444;-64
2021/11/18 07:03:16;;;;;;;19.17;16.40;;;7.40;99.90;;;;;;5048283;28;20930;-64
2021/11/18 07:05:43;;;;;;;17.87;15.93;;;7.40;99.90;;;;;;5049579;28;20968;-65
2021/11/18 07:08:11;;;;;;;21.80;17.43;;;7.40;99.90;;;;;;5051118;28;20470;-63
2021/11/18 07:10:40;;;;;;;24.27;19.30;;;7.50;99.90;;;;;;5052083;28;20460;-63
2021/11/18 07:13:10;;;;;;;23.07;18.50;;;7.40;99.90;;;;;;5051972;28;20452;-65
2021/11/18 07:15:39;;;;;;;24.63;19.47;;;7.40;99.90;;;;;;5051792;28;20980;-64
2021/11/18 07:18:06;;;;;;;26.17;19.60;;;7.40;99.90;;;;;;5050842;28;20514;-63
2021/11/18 07:20:33;;;;;;;21.70;17.10;;;7.40;99.90;;;;;;5051357;28;20502;-65
2021/11/18 07:23:00;;;;;;;20.03;16.77;;;7.40;99.90;;;;;;5051697;28;20440;-67
2021/11/18 07:25:28;;;;;;;23.03;17.60;;;7.50;99.90;;;;;;5051581;28;20450;-64
2021/11/18 07:27:57;;;;;;;19.83;16.47;;;7.50;99.90;;;;;;5050212;28;21131;-65
2021/11/18 07:30:25;;;;;;;24.73;19.87;;;7.60;99.90;;;;;;5051344;28;20478;-64
2021/11/18 07:32:54;;;;;;;20.50;16.30;;;7.60;99.90;;;;;;5051796;28;20487;-64
2021/11/18 07:35:22;;;;;;;18.37;16.33;;;7.50;99.90;;;;;;5051388;28;20444;-64
2021/11/18 07:37:48;;;;;;;19.80;15.43;;;7.50;99.90;;;;;;5050182;28;20480;-64
2021/11/18 07:40:17;;;;;;;22.70;16.73;;;7.40;99.90;;;;;;5051252;28;20991;-65
2021/11/18 07:42:45;;;;;;;18.20;15.10;;;7.50;99.90;;;;;;5051433;28;20464;-65
2021/11/18 07:45:15;;;;;;;20.23;15.90;;;7.60;99.90;;;;;;5051377;28;20447;-65
2021/11/18 07:47:42;;;;;;;20.30;16.40;;;7.60;99.90;;;;;;5050098;28;20463;-64
2021/11/18 07:50:11;;;;;;;17.87;15.83;;;7.60;99.90;;;;;;5051366;28;20448;-65
2021/11/18 07:52:39;;;;;;;22.67;16.80;;;7.70;99.90;;;;;;5051155;28;20451;-65
2021/11/18 07:55:09;;;;;;;18.20;15.57;;;7.80;99.90;;;;;;5050518;28;20456;-65
2021/11/18 07:57:36;;;;;;;20.50;14.97;;;7.90;99.90;;;;;;5049826;28;20484;-66
2021/11/18 08:00:05;;;;;;;20.97;17.37;;;7.90;99.90;;;;;;5051227;28;20444;-65
2021/11/18 08:02:32;;;;;;;21.40;18.83;;;7.90;99.90;;;;;;5050594;28;20453;-64
2021/11/18 08:04:59;;;;;;;19.93;17.80;;;8.00;99.90;;;;;;5051034;28;20477;-64
2021/11/18 08:07:27;;;;;;;21.30;16.67;;;8.00;99.90;;;;;;5050085;28;20471;-64
2021/11/18 08:09:55;;;;;;;22.60;18.30;;;8.10;99.90;;;;;;5051141;28;20532;-62
2021/11/18 08:12:22;;;;;;;20.47;18.27;;;8.20;99.90;;;;;;5051173;28;20444;-64
2021/11/18 08:14:49;;;;;;;20.97;17.00;;;8.20;99.90;;;;;;5050713;28;20445;-65
2021/11/18 08:17:16;;;;;;;22.73;18.67;;;8.30;99.90;;;;;;5049210;28;20511;-65
2021/11/18 08:19:43;;;;;;;26.47;22.60;;;8.30;99.90;;;;;;5050547;28;20449;-65
2021/11/18 08:22:10;;;;;;;19.93;16.50;;;8.30;99.90;;;;;;5047460;28;20824;-65
2021/11/18 08:24:38;;;;;;;24.10;18.80;;;8.30;99.90;;;;;;5049985;28;20963;-65
2021/11/18 08:27:05;;;;;;;18.63;15.57;;;8.30;99.90;;;;;;5049062;28;20494;-65
2021/11/18 08:29:32;;;;;;;22.73;17.30;;;8.40;99.90;;;;;;5049760;28;20440;-65
2021/11/18 08:32:00;;;;;;;17.30;15.33;;;8.40;99.90;;;;;;5050698;28;20444;-65
2021/11/18 08:34:28;;;;;;;23.07;18.37;;;8.40;99.90;;;;;;5050308;28;20989;-63
2021/11/18 08:36:55;;;;;;;20.57;16.83;;;8.40;99.90;;;;;;5049024;28;20491;-65
2021/11/18 08:39:24;;;;;;;23.03;15.57;;;8.50;99.90;;;;;;5049800;28;20922;-62
2021/11/18 08:41:56;;;;;;;20.67;15.67;;;8.60;99.90;;;;;;5049950;28;21061;-65
2021/11/18 08:44:24;;;;;;;23.67;17.53;;;8.70;99.90;;;;;;5050076;28;20455;-65
2021/11/18 08:46:51;;;;;;;19.23;15.93;;;8.80;99.90;;;;;;5048793;28;20464;-65
2021/11/18 08:49:18;;;;;;;19.23;15.50;;;8.80;99.90;;;;;;5049889;28;20449;-66
2021/11/18 08:51:46;;;;;;;21.43;17.07;;;8.80;99.90;;;;;;5049828;28;20449;-65
2021/11/18 08:54:16;;;;;;;22.33;16.53;;;8.90;99.90;;;;;;5050144;28;20462;-64
2021/11/18 08:56:44;;;;;;;23.70;16.60;;;8.90;99.90;;;;;;5049158;28;20487;-65
2021/11/18 08:59:12;;;;;;;17.97;16.00;;;9.10;99.90;;;;;;5050096;28;20448;-64
2021/11/18 09:01:42;;;;;;;19.60;16.07;;;9.10;99.90;;;;;;5050244;28;20474;-64
2021/11/18 09:04:11;;;;;;;22.50;16.97;;;9.10;99.90;;;;;;5049633;28;20966;-65
2021/11/18 09:06:39;;;;;;;21.00;16.00;;;9.10;99.90;;;;;;5048528;28;20985;-64
2021/11/18 09:09:08;;;;;;;27.23;16.00;;;9.00;99.90;;;;;;5049869;28;20457;-65
2021/11/18 09:11:35;;;;;;;20.73;15.90;;;9.00;99.90;;;;;;5049742;28;20460;-61
2021/11/18 09:14:03;;;;;;;19.38;16.23;;;8.80;99.90;;;;;;5049859;28;20446;-64
2021/11/18 09:16:35;;;;;;;22.50;15.73;;;8.90;99.90;;;;;;5048823;28;21090;-64
2021/11/18 09:19:04;;;;;;;22.37;16.83;;;8.90;99.90;;;;;;5049571;28;20467;-64
2021/11/18 09:21:31;;;;;;;21.90;15.93;;;9.00;99.90;;;;;;5050969;28;20870;-63
2021/11/18 09:24:01;;;;;;;25.57;17.53;;;9.00;99.90;;;;;;5051014;28;20449;-65
2021/11/18 09:26:31;;;;;;;22.00;15.03;;;9.00;99.90;;;;;;5049803;28;20464;-65
2021/11/18 09:28:59;;;;;;;30.67;19.07;;;9.10;99.90;;;;;;5049700;28;20449;-65
2021/11/18 09:31:28;;;;;;;28.20;18.23;;;9.10;99.90;;;;;;5050453;28;20444;-65
2021/11/18 09:33:57;;;;;;;23.00;15.97;;;8.90;99.90;;;;;;5050515;28;20699;-64
2021/11/18 09:36:25;;;;;;;25.50;17.50;;;8.90;99.90;;;;;;5049811;28;20468;-63
2021/11/18 09:38:53;;;;;;;24.10;16.37;;;9.00;99.90;;;;;;5050010;28;20487;-64
2021/11/18 09:41:57;;;;;;;20.57;16.03;;;9.00;99.90;;;;;;5050299;28;20457;-65
2021/11/18 09:44:48;;;;;;;24.73;17.23;;;9.00;99.90;;;;;;5050294;28;20494;-66
2021/11/18 09:47:45;;;;;;;25.60;16.00;;;9.10;99.90;;;;;;5049150;28;20466;-65
2021/11/18 09:50:21;;;;;;;22.63;15.27;;;9.10;99.90;;;;;;5050095;28;20451;-65
2021/11/18 09:53:00;;;;;;;27.33;15.60;;;9.20;99.90;;;;;;5050168;28;20484;-66
2021/11/18 09:55:42;;;;;;;21.30;16.70;;;9.30;99.90;;;;;;5050093;28;20487;-65
2021/11/18 09:58:26;;;;;;;24.40;15.40;;;9.30;99.90;;;;;;5048649;28;20487;-63
2021/11/18 10:01:05;;;;;;;19.40;15.07;;;9.50;99.90;;;;;;5049835;28;20444;-65
2021/11/18 10:03:38;;;;;;;22.73;17.03;;;9.70;99.90;;;;;;5049889;28;20444;-65
2021/11/18 10:06:19;;;;;;;20.47;15.33;;;9.90;99.90;;;;;;5049836;28;20535;-66
2021/11/18 10:09:02;;;;;;;22.73;16.60;;;10.10;99.90;;;;;;5049345;28;20450;-65
2021/11/18 10:11:44;;;;;;;20.00;15.70;;;10.20;99.90;;;;;;5049824;28;20452;-65
2021/11/18 10:14:36;;;;;;;20.43;14.60;;;10.40;99.90;;;;;;5049845;28;20539;-65
2021/11/18 10:17:14;;;;;;;18.07;13.93;;;10.70;99.90;;;;;;5048208;28;20534;-63
2021/11/18 10:19:44;;;;;;;23.67;18.23;;;10.80;99.90;;;;;;5049555;28;20450;-66
2021/11/18 10:22:14;;;;;;;18.47;14.40;;;10.90;99.90;;;;;;5049806;28;20460;-63
2021/11/18 10:24:43;;;;;;;24.30;15.80;;;11.00;99.90;;;;;;5049677;28;20459;-65
2021/11/18 10:27:13;;;;;;;18.70;15.27;;;11.10;99.90;;;;;;5048370;28;20498;-66
2021/11/18 10:29:57;;;;;;;25.40;16.33;;;11.20;99.90;;;;;;5049749;28;20510;-65
2021/11/18 10:32:28;;;;;;;20.50;15.20;;;11.60;99.90;;;;;;5049600;28;20536;-66
2021/11/18 10:35:00;;;;;;;22.80;15.40;;;11.70;99.90;;;;;;5049622;28;20450;-65
2021/11/18 10:37:30;;;;;;;21.70;15.70;;;11.80;99.90;;;;;;5048364;28;20906;-65
2021/11/18 10:40:06;;;;;;;22.87;15.03;;;12.20;99.90;;;;;;5051232;28;20440;-66
2021/11/18 10:42:36;;;;;;;21.17;14.53;;;12.60;99.90;;;;;;5053597;28;20535;-66
2021/11/18 10:45:08;;;;;;;19.43;14.70;;;13.10;99.90;;;;;;5053683;28;20440;-66
2021/11/18 10:47:40;;;;;;;20.05;13.00;;;13.70;99.90;;;;;;5052098;28;21007;-66
2021/11/18 10:50:14;;;;;;;23.10;16.00;;;13.90;99.90;;;;;;5053403;28;20228;-66
2021/11/18 10:52:46;;;;;;;16.33;13.70;;;13.60;99.90;;;;;;5053138;28;20880;-67
2021/11/18 10:55:17;;;;;;;19.70;14.30;;;13.20;99.90;;;;;;5053313;28;20444;-63
2021/11/18 10:58:00;;;;;;;16.80;13.25;;;12.90;99.90;;;;;;5051915;28;20488;-63
2021/11/18 11:00:31;;;;;;;17.33;13.37;;;12.90;99.90;;;;;;5052989;28;20208;-63
2021/11/18 11:02:59;;;;;;;16.87;13.23;;;12.90;99.90;;;;;;5053141;28;20513;-65
2021/11/18 11:05:38;;;;;;;20.07;14.83;;;12.50;99.90;;;;;;5053432;28;20878;-63
2021/11/18 11:08:29;;;;;;;18.67;13.73;;;12.20;99.90;;;;;;5052184;28;20869;-63
2021/11/18 11:11:00;;;;;;;18.17;13.07;;;12.10;99.90;;;;;;5053054;28;20472;-64
2021/11/18 11:13:47;;;;;;;18.47;14.70;;;12.30;99.90;;;;;;5052686;28;20829;-65
2021/11/18 11:16:30;;;;;;;17.63;13.10;;;12.20;99.90;;;;;;5052563;28;20458;-65
2021/11/18 11:19:04;;;;;;;16.03;11.40;;;12.30;99.90;;;;;;5052464;28;20870;-65
2021/11/18 11:21:41;;;;;;;16.70;12.30;;;12.50;99.90;;;;;;5052734;28;20459;-63
2021/11/18 11:24:31;;;;;;;19.20;13.73;;;12.50;99.90;;;;;;5052780;28;20482;-65
2021/11/18 11:27:34;;;;;;;19.47;13.30;;;12.70;99.90;;;;;;5051597;28;20460;-65
2021/11/18 11:30:11;;;;;;;18.40;13.13;;;12.70;99.90;;;;;;5052505;28;20448;-65
2021/11/18 11:32:44;;;;;;;16.90;13.83;;;12.80;99.90;;;;;;5052820;28;20932;-65
2021/11/18 11:35:42;;;;;;;22.10;15.60;;;12.20;99.90;;;;;;5052592;28;20440;-65
2021/11/18 11:38:33;;;;;;;21.70;15.00;;;11.80;99.90;;;;;;5049378;28;20901;-64
2021/11/18 11:41:44;;;;;;;23.47;16.83;;;11.40;99.90;;;;;;5052947;28;20448;-63
2021/11/18 11:44:16;;;;;;;19.40;16.00;;;11.40;99.90;;;;;;5052425;28;20448;-64
2021/11/18 11:46:48;;;;;;;19.70;15.80;;;11.60;99.90;;;;;;5050918;28;20460;-65
2021/11/18 11:49:30;;;;;;;20.17;15.33;;;11.70;99.90;;;;;;5052353;28;20934;-64
2021/11/18 11:52:31;;;;;;;18.10;13.77;;;11.80;99.90;;;;;;5051808;28;20440;-64
2021/11/18 11:55:24;;;;;;;20.57;15.37;;;12.00;99.90;;;;;;5047244;28;20550;-62
2021/11/18 11:57:57;;;;;;;19.83;14.57;;;11.60;99.90;;;;;;5051607;28;20571;-64
2021/11/18 12:00:28;;;;;;;20.97;15.03;;;11.10;99.90;;;;;;5052603;28;20822;-64
2021/11/18 12:03:03;;;;;;;19.60;13.47;;;11.10;99.90;;;;;;5052252;28;20449;-63
2021/11/18 12:05:48;;;;;;;20.23;14.93;;;10.80;99.90;;;;;;5051888;28;20985;-64
2021/11/18 12:08:21;;;;;;;18.43;14.27;;;11.00;99.90;;;;;;5050715;28;20811;-64
2021/11/18 12:10:53;;;;;;;16.83;13.27;;;11.20;99.90;;;;;;5051947;28;20460;-63
2021/11/18 12:13:43;;;;;;;16.93;12.97;;;11.30;99.90;;;;;;5052525;28;20444;-63
2021/11/18 12:16:15;;;;;;;16.90;13.10;;;11.50;99.90;;;;;;5051676;28;20480;-63
2021/11/18 12:18:46;;;;;;;15.70;12.97;;;11.50;99.90;;;;;;5051564;28;20568;-63
2021/11/18 12:21:15;;;;;;;16.50;12.53;;;11.60;99.90;;;;;;5051877;28;20935;-65
2021/11/18 12:24:02;;;;;;;16.10;12.70;;;11.60;99.90;;;;;;5051856;28;20457;-60
2021/11/18 12:26:30;;;;;;;16.80;13.00;;;11.60;99.90;;;;;;5050832;28;20471;-64
2021/11/18 12:29:11;;;;;;;17.93;12.57;;;11.30;99.90;;;;;;5051608;28;20956;-63
2021/11/18 12:31:38;;;;;;;20.20;13.27;;;11.00;99.90;;;;;;5051955;28;20935;-61
2021/11/18 12:34:12;;;;;;;21.83;17.20;;;10.70;99.90;;;;;;5051430;28;20458;-64
2021/11/18 12:37:17;;;;;;;21.63;16.07;;;10.50;99.90;;;;;;5050120;28;20944;-63
2021/11/18 12:39:52;;;;;;;18.50;13.53;;;10.40;99.90;;;;;;4989363;28;20491;-63
2021/11/18 12:42:41;;;;;;;17.87;14.23;;;10.50;99.90;;;;;;4989246;28;20897;-64
2021/11/18 12:45:51;;;;;;;18.00;13.30;;;10.60;99.90;;;;;;5031405;28;20957;-64
2021/11/18 12:48:22;;;;;;;15.50;13.00;;;10.70;99.90;;;;;;5034611;28;20472;-64
2021/11/18 12:50:53;;;;;;;15.77;13.13;;;10.80;99.90;;;;;;5047034;28;20451;-64
2021/11/18 12:53:32;;;;;;;15.40;12.00;;;10.80;99.90;;;;;;5050692;28;20871;-64